createdAt,value
2023-05-19T00:01:25.269Z,5.55
2023-05-19T00:06:33.260Z,7.50
2023-05-19T00:11:38.487Z,6.15
2023-05-19T00:16:42.607Z,7.25
2023-05-19T00:21:45.725Z,4.70
2023-05-19T00:26:48.832Z,12.20
2023-05-19T00:31:52.021Z,4.85
2023-05-19T00:36:55.156Z,8.93
2023-05-19T00:41:58.283Z,7.53
2023-05-19T00:47:01.598Z,5.30
2023-05-19T00:52:07.187Z,4.57
2023-05-19T00:57:10.409Z,5.22
2023-05-19T01:02:13.701Z,4.72
2023-05-19T01:07:16.946Z,5.10
2023-05-19T01:12:20.369Z,9.43
2023-05-19T01:17:35.472Z,7.22
2023-05-19T01:23:00.654Z,7.60
2023-05-19T01:28:09.458Z,7.65
2023-05-19T01:33:15.023Z,7.85
2023-05-19T01:38:19.693Z,4.97
2023-05-19T01:43:26.198Z,6.10
2023-05-19T01:48:30.372Z,7.07
2023-05-19T01:53:34.135Z,9.40
2023-05-19T01:58:43.271Z,11.07
2023-05-19T02:04:08.084Z,6.80
2023-05-19T02:09:41.515Z,5.82
2023-05-19T02:15:00.458Z,6.35
2023-05-19T02:20:05.481Z,16.77
2023-05-19T02:25:09.420Z,11.45
2023-05-19T02:30:13.360Z,8.27
2023-05-19T02:35:16.534Z,11.82
2023-05-19T02:40:19.932Z,23.88
2023-05-19T02:45:23.833Z,21.00
2023-05-19T02:50:26.891Z,8.40
2023-05-19T02:55:30.080Z,9.98
2023-05-19T03:00:33.401Z,8.05
2023-05-19T03:05:37.179Z,5.03
2023-05-19T03:10:40.540Z,8.70
2023-05-19T03:15:43.674Z,10.38
2023-05-19T03:20:46.741Z,10.70
2023-05-19T03:25:49.851Z,11.38
2023-05-19T03:30:53.032Z,16.33
2023-05-19T03:36:00.306Z,13.70
2023-05-19T03:41:06.452Z,14.00
2023-05-19T03:46:10.537Z,12.07
2023-05-19T03:51:35.245Z,13.80
2023-05-19T03:56:57.236Z,16.13
2023-05-19T04:02:00.417Z,16.15
2023-05-19T04:07:03.682Z,13.77
2023-05-19T04:12:07.057Z,8.70
2023-05-19T04:17:10.236Z,11.00
2023-05-19T04:22:13.399Z,5.22
2023-05-19T04:27:18.220Z,11.18
2023-05-19T04:32:21.387Z,10.70
2023-05-19T04:37:28.328Z,17.80
2023-05-19T04:42:33.271Z,7.82
2023-05-19T04:47:38.558Z,6.88
2023-05-19T04:52:45.871Z,12.90
2023-05-19T04:57:49.068Z,10.40
2023-05-19T05:02:52.252Z,12.02
2023-05-19T05:07:57.839Z,8.05
2023-05-19T05:13:04.269Z,8.20
2023-05-19T05:18:07.924Z,16.35
2023-05-19T05:23:14.944Z,16.85
2023-05-19T05:28:19.925Z,12.80
2023-05-19T05:33:25.222Z,9.57
2023-05-19T05:38:28.395Z,10.15
2023-05-19T05:43:31.807Z,8.77
2023-05-19T05:48:39.007Z,15.10
2023-05-19T05:53:45.275Z,8.30
2023-05-19T05:58:51.038Z,15.45
2023-05-19T06:03:54.455Z,15.30
2023-05-19T06:09:00.162Z,14.27
2023-05-19T06:14:04.688Z,9.43
2023-05-19T06:19:33.623Z,9.98
2023-05-19T06:24:38.755Z,14.93
2023-05-19T06:29:44.877Z,9.27
2023-05-19T06:34:54.973Z,7.72
2023-05-19T06:39:58.326Z,7.90
2023-05-19T06:45:01.573Z,8.93
2023-05-19T06:50:11.334Z,8.27
2023-05-19T06:55:17.886Z,7.80
2023-05-19T07:00:24.003Z,8.23
2023-05-19T07:05:29.230Z,7.00
2023-05-19T07:10:35.002Z,8.23
2023-05-19T07:15:40.520Z,6.72
2023-05-19T07:20:43.854Z,5.88
2023-05-19T07:25:47.052Z,9.90
2023-05-19T07:30:50.266Z,4.35
2023-05-19T07:35:53.981Z,5.82
2023-05-19T07:40:57.249Z,10.70
2023-05-19T07:46:00.449Z,10.20
2023-05-19T07:51:03.751Z,2.65
2023-05-19T07:56:07.013Z,7.90
2023-05-19T08:01:10.078Z,5.88
2023-05-19T08:06:13.300Z,5.43
2023-05-19T08:11:16.904Z,7.28
2023-05-19T08:16:20.141Z,3.63
2023-05-19T08:21:23.449Z,5.18
2023-05-19T08:26:26.714Z,6.85
2023-05-19T08:31:29.913Z,2.20
2023-05-19T08:36:34.206Z,6.05
2023-05-19T08:41:37.405Z,8.18
2023-05-19T08:46:41.622Z,3.97
2023-05-19T08:51:58.915Z,6.53
2023-05-19T08:57:02.648Z,5.78
2023-05-19T09:02:07.191Z,10.75
2023-05-19T09:07:11.232Z,4.10
2023-05-19T09:12:14.760Z,4.15
2023-05-19T09:17:19.021Z,5.15
2023-05-19T09:22:22.194Z,3.42
2023-05-19T09:27:25.302Z,16.73
2023-05-19T09:32:28.585Z,3.20
2023-05-19T09:37:32.579Z,5.65
2023-05-19T09:42:38.588Z,2.85
2023-05-19T09:47:42.488Z,4.07
2023-05-19T09:52:45.885Z,7.88
2023-05-19T09:57:49.391Z,5.20
2023-05-19T10:02:53.334Z,6.88
2023-05-19T10:07:56.423Z,2.92
2023-05-19T10:13:00.550Z,6.72
2023-05-19T10:18:04.095Z,3.97
2023-05-19T10:23:07.304Z,5.50
2023-05-19T10:28:15.460Z,6.28
2023-05-19T10:33:21.561Z,5.18
2023-05-19T10:38:57.137Z,5.55
2023-05-19T10:44:29.488Z,4.85
2023-05-19T10:49:36.090Z,3.25
2023-05-19T10:54:47.715Z,6.28
2023-05-19T10:59:51.277Z,3.72
2023-05-19T11:04:58.656Z,5.55
2023-05-19T11:10:07.358Z,6.93
2023-05-19T11:15:12.765Z,4.25
2023-05-19T11:20:27.836Z,5.68
2023-05-19T11:25:48.231Z,3.83
2023-05-19T11:30:54.209Z,5.78
2023-05-19T11:35:58.781Z,6.03
2023-05-19T11:41:03.900Z,8.70
2023-05-19T11:46:07.064Z,7.18
2023-05-19T11:51:10.236Z,7.03
2023-05-19T11:56:13.366Z,5.03
2023-05-19T12:01:16.867Z,4.55
2023-05-19T12:06:20.058Z,12.00
2023-05-19T12:11:24.568Z,3.60
2023-05-19T12:16:35.080Z,4.60
2023-05-19T12:21:38.657Z,5.95
2023-05-19T12:26:41.824Z,3.53
2023-05-19T12:31:47.645Z,4.68
2023-05-19T12:36:50.910Z,2.97
2023-05-19T12:41:54.782Z,2.90
2023-05-19T12:46:59.870Z,5.53
2023-05-19T12:52:07.170Z,8.27
2023-05-19T12:57:13.728Z,5.25
2023-05-19T13:02:18.672Z,6.68
2023-05-19T13:07:21.843Z,4.30
2023-05-19T13:12:26.344Z,9.77
2023-05-19T13:17:29.837Z,6.72
2023-05-19T13:22:33.315Z,6.43
2023-05-19T13:27:36.588Z,6.40
2023-05-19T13:32:40.053Z,5.68
2023-05-19T13:37:43.562Z,7.20
2023-05-19T13:42:46.939Z,4.22
2023-05-19T13:47:50.272Z,7.43
2023-05-19T13:52:54.306Z,5.60
2023-05-19T13:57:57.594Z,7.93
2023-05-19T14:03:00.924Z,10.45
2023-05-19T14:08:05.854Z,11.05
2023-05-19T14:18:16.909Z,13.48
2023-05-19T14:23:21.848Z,7.57
2023-05-19T14:33:27.907Z,7.75
2023-05-19T14:38:31.582Z,13.30
2023-05-19T14:43:34.759Z,12.95
2023-05-19T14:48:37.983Z,14.32
2023-05-19T14:53:41.334Z,12.90
2023-05-19T14:58:44.450Z,11.80
2023-05-19T15:03:47.633Z,24.35
2023-05-19T15:08:50.798Z,17.05
2023-05-19T15:13:53.907Z,14.48
2023-05-19T15:18:57.156Z,7.60
2023-05-19T15:24:00.317Z,16.52
2023-05-19T15:29:03.587Z,27.38
2023-05-19T15:34:06.725Z,27.88
2023-05-19T15:39:10.275Z,8.85
2023-05-19T15:44:13.536Z,8.93
2023-05-19T15:49:18.217Z,5.35
2023-05-19T15:54:21.333Z,15.73
2023-05-19T15:59:24.607Z,13.35
2023-05-19T16:04:27.730Z,10.45
2023-05-19T16:09:31.028Z,13.80
2023-05-19T16:14:36.866Z,17.48
2023-05-19T16:19:41.543Z,9.27
2023-05-19T16:24:44.635Z,15.75
2023-05-19T16:29:47.846Z,14.88
2023-05-19T16:34:51.013Z,14.88
2023-05-19T16:39:54.187Z,14.75
2023-05-19T16:44:57.239Z,32.63
2023-05-19T16:50:00.373Z,29.75
2023-05-19T16:55:03.569Z,16.00
2023-05-19T17:00:07.573Z,8.23
2023-05-19T17:05:29.371Z,12.75
2023-05-19T17:10:33.960Z,15.07
2023-05-19T17:15:56.236Z,16.02
2023-05-19T17:21:03.967Z,24.25
2023-05-19T17:26:07.523Z,44.78
2023-05-19T17:31:12.759Z,23.38
2023-05-19T17:36:16.085Z,18.95
2023-05-19T17:41:19.270Z,17.58
2023-05-19T17:46:23.534Z,10.10
2023-05-19T17:51:27.075Z,20.25
2023-05-19T17:56:34.567Z,11.10
2023-05-19T18:01:37.925Z,26.55
2023-05-19T18:06:44.084Z,23.70
2023-05-19T18:11:47.164Z,35.90
2023-05-19T18:16:50.424Z,22.05
2023-05-19T18:21:53.651Z,37.03
2023-05-19T18:26:56.836Z,18.05
2023-05-19T18:32:00.096Z,20.15
2023-05-19T18:37:03.417Z,18.02
2023-05-19T18:42:08.263Z,11.85
2023-05-19T18:47:11.949Z,9.25
2023-05-19T18:52:15.760Z,7.38
2023-05-19T18:57:18.833Z,14.77
2023-05-19T19:02:22.060Z,16.88
2023-05-19T19:07:27.192Z,20.20
2023-05-19T19:12:30.309Z,14.50
2023-05-19T19:17:33.477Z,12.77
2023-05-19T19:22:36.714Z,15.77
2023-05-19T19:27:39.839Z,18.95
2023-05-19T19:32:43.018Z,22.15
2023-05-19T19:37:47.250Z,24.48
2023-05-19T19:42:50.409Z,12.70
2023-05-19T19:47:53.849Z,15.65
2023-05-19T19:52:57.024Z,17.35
2023-05-19T19:58:00.155Z,22.85
2023-05-19T20:03:05.466Z,20.95
2023-05-19T20:08:09.064Z,22.17
2023-05-19T20:13:12.200Z,21.27
2023-05-19T20:18:15.716Z,17.83
2023-05-19T20:23:18.991Z,17.83
2023-05-19T20:28:23.275Z,16.40
2023-05-19T20:33:27.385Z,18.92
2023-05-19T20:38:30.656Z,19.48
2023-05-19T20:43:34.179Z,26.92
2023-05-19T20:48:37.363Z,19.10
2023-05-19T20:53:40.640Z,22.25
2023-05-19T20:58:43.755Z,16.88
2023-05-19T21:03:46.850Z,23.92
2023-05-19T21:08:49.945Z,26.92
2023-05-19T21:13:54.464Z,15.98
2023-05-19T21:18:57.532Z,18.25
2023-05-19T21:24:01.105Z,14.10
2023-05-19T21:29:04.224Z,22.27
2023-05-19T21:34:10.281Z,19.13
2023-05-19T21:39:13.824Z,15.77
2023-05-19T21:44:18.809Z,18.95
2023-05-19T21:49:27.205Z,14.43
2023-05-19T21:54:30.873Z,18.65
2023-05-19T21:59:33.929Z,18.02
2023-05-19T22:04:37.538Z,21.02
2023-05-19T22:09:40.825Z,21.77
2023-05-19T22:14:43.896Z,20.05
2023-05-19T22:19:46.912Z,25.70
2023-05-19T22:24:50.031Z,31.83
2023-05-19T22:29:53.062Z,17.52
2023-05-19T22:34:56.338Z,31.50
2023-05-19T22:39:59.433Z,31.95
2023-05-19T22:45:02.697Z,23.63
2023-05-19T22:50:10.523Z,26.52
2023-05-19T22:55:13.722Z,24.42
2023-05-19T23:00:20.990Z,23.40
2023-05-19T23:05:24.276Z,28.05
2023-05-19T23:10:27.491Z,27.15
2023-05-19T23:15:30.553Z,29.98
2023-05-19T23:20:34.782Z,25.23
2023-05-19T23:25:37.873Z,31.83
2023-05-19T23:30:41.085Z,33.03
2023-05-19T23:35:46.549Z,24.35
2023-05-19T23:40:49.660Z,34.72
2023-05-19T23:45:52.745Z,24.02
2023-05-19T23:50:56.134Z,21.13
2023-05-19T23:55:59.306Z,19.05
